Time;durP1;ratioP1;P1;durP2;ratioP2;P2;SDS_P1;SDS_P2;PMS_P1;PMS_P2;Temp;Humidity;BMP_temperature;BMP_pressure;BME280_temperature;BME280_humidity;BME280_pressure;Samples;Min_cycle;Max_cycle;Signal;HPM_P1;HPM_P2
2024/03/09 00:02:21;;;;;;;11.87;6.93;;;4.90;99.90;;;;;;5051040;28;20167;-69
2024/03/09 00:04:46;;;;;;;11.23;7.07;;;4.90;99.90;;;;;;5051940;28;20564;-69
2024/03/09 00:07:12;;;;;;;17.10;7.30;;;4.90;99.90;;;;;;5050862;28;20194;-69
2024/03/09 00:09:37;;;;;;;13.70;7.53;;;4.90;99.90;;;;;;5052312;28;20158;-69
2024/03/09 00:12:04;;;;;;;14.23;6.67;;;4.90;99.90;;;;;;5050745;28;20537;-69
2024/03/09 00:14:30;;;;;;;15.23;7.60;;;4.90;99.90;;;;;;5051450;28;20232;-69
2024/03/09 00:16:56;;;;;;;12.20;8.87;;;4.90;99.90;;;;;;5051982;28;20409;-69
2024/03/09 00:19:22;;;;;;;11.17;6.80;;;4.90;99.90;;;;;;5051594;28;20423;-69
2024/03/09 00:21:48;;;;;;;12.33;8.57;;;4.80;99.90;;;;;;5051868;28;20401;-69
2024/03/09 00:24:14;;;;;;;12.97;7.73;;;4.80;99.90;;;;;;5051694;28;20408;-69
2024/03/09 00:26:40;;;;;;;9.37;6.60;;;4.60;99.90;;;;;;5051698;28;20405;-69
2024/03/09 00:29:05;;;;;;;17.13;7.20;;;4.60;99.90;;;;;;5052091;28;20508;-69
2024/03/09 00:31:31;;;;;;;10.03;6.87;;;4.50;99.90;;;;;;5050710;28;20258;-69
2024/03/09 00:33:57;;;;;;;18.33;8.03;;;4.60;99.90;;;;;;5051515;28;20159;-69
2024/03/09 00:36:23;;;;;;;11.60;6.40;;;4.60;99.90;;;;;;5050485;28;20789;-69
2024/03/09 00:38:48;;;;;;;13.17;7.13;;;4.60;99.90;;;;;;5051672;28;20278;-69
2024/03/09 00:41:14;;;;;;;8.30;5.47;;;4.60;99.90;;;;;;5051757;28;20173;-69
2024/03/09 00:43:43;;;;;;;12.47;7.70;;;4.60;99.90;;;;;;5049961;28;20565;-69
2024/03/09 00:46:09;;;;;;;9.10;5.73;;;4.60;99.90;;;;;;5051779;28;20159;-69
2024/03/09 00:48:35;;;;;;;11.40;6.37;;;4.40;99.90;;;;;;5051513;28;21013;-69
2024/03/09 00:51:01;;;;;;;9.93;7.40;;;4.30;99.90;;;;;;5050143;28;20438;-69
2024/03/09 00:53:26;;;;;;;11.07;7.10;;;4.30;99.90;;;;;;5050013;28;20460;-69
2024/03/09 00:55:52;;;;;;;11.27;6.40;;;4.40;99.90;;;;;;5050398;28;20581;-69
2024/03/09 00:58:21;;;;;;;14.13;6.37;;;4.40;99.90;;;;;;5051487;28;20261;-69
2024/03/09 01:00:48;;;;;;;14.60;6.43;;;4.50;99.90;;;;;;5051783;28;20170;-69
2024/03/09 01:03:14;;;;;;;9.20;6.77;;;4.50;99.90;;;;;;5051473;28;20825;-69
2024/03/09 01:05:44;;;;;;;18.63;7.97;;;4.60;99.90;;;;;;5049830;28;20401;-69
2024/03/09 01:08:13;;;;;;;13.57;7.53;;;4.60;99.90;;;;;;5049792;28;20241;-69
2024/03/09 01:10:42;;;;;;;12.40;8.00;;;4.60;99.90;;;;;;5050031;28;20426;-69
2024/03/09 01:13:08;;;;;;;10.50;6.40;;;4.70;99.90;;;;;;5054690;28;20401;-69
2024/03/09 01:15:35;;;;;;;13.47;5.67;;;4.60;99.90;;;;;;5054153;28;20408;-69
2024/03/09 01:18:01;;;;;;;10.90;6.10;;;4.60;99.90;;;;;;5055299;28;20473;-69
2024/03/09 01:20:27;;;;;;;9.93;6.27;;;4.60;99.90;;;;;;5054152;28;20413;-69
2024/03/09 01:22:53;;;;;;;12.97;6.50;;;4.60;99.90;;;;;;5053893;28;20425;-69
2024/03/09 01:25:19;;;;;;;11.93;6.80;;;4.70;99.90;;;;;;5055046;28;20173;-69
2024/03/09 01:27:46;;;;;;;13.00;7.17;;;4.70;99.90;;;;;;5055255;28;20465;-69
2024/03/09 01:30:12;;;;;;;9.03;6.07;;;4.80;99.90;;;;;;5055183;28;20432;-69
2024/03/09 01:32:40;;;;;;;10.33;6.87;;;4.80;99.90;;;;;;5053825;28;20487;-69
2024/03/09 01:35:08;;;;;;;10.20;6.80;;;4.80;99.90;;;;;;5054977;28;20166;-69
2024/03/09 01:37:33;;;;;;;10.60;7.23;;;4.90;99.90;;;;;;5054905;28;20421;-69
2024/03/09 01:39:58;;;;;;;9.20;7.00;;;4.90;99.90;;;;;;5054472;28;20467;-69
2024/03/09 01:42:26;;;;;;;10.37;6.80;;;5.00;99.90;;;;;;5054630;28;20178;-69
2024/03/09 01:44:52;;;;;;;10.43;6.47;;;5.10;99.90;;;;;;5054721;28;20181;-69
2024/03/09 01:47:21;;;;;;;11.63;6.97;;;5.20;99.90;;;;;;5053266;28;20540;-69
2024/03/09 01:49:49;;;;;;;9.10;5.60;;;5.20;99.90;;;;;;5053518;28;20798;-69
2024/03/09 01:52:16;;;;;;;9.73;6.20;;;5.30;99.90;;;;;;5054540;28;20432;-69
2024/03/09 01:54:43;;;;;;;10.73;6.50;;;5.30;99.90;;;;;;5053152;28;20467;-69
2024/03/09 01:57:09;;;;;;;8.10;5.73;;;5.30;99.90;;;;;;5054552;28;20778;-69
2024/03/09 01:59:35;;;;;;;10.17;6.50;;;5.40;99.90;;;;;;5054472;28;20436;-69
2024/03/09 02:02:01;;;;;;;9.50;6.27;;;5.50;99.90;;;;;;5053278;28;20881;-69
2024/03/09 02:04:29;;;;;;;12.93;7.17;;;5.60;99.90;;;;;;5053210;28;20405;-69
2024/03/09 02:06:56;;;;;;;10.40;6.90;;;5.60;99.90;;;;;;5054741;28;20947;-69
2024/03/09 02:09:25;;;;;;;13.37;6.10;;;5.70;99.90;;;;;;5054374;28;20394;-70
2024/03/09 02:11:51;;;;;;;11.20;6.60;;;5.70;99.90;;;;;;5053162;28;20497;-70
2024/03/09 02:14:16;;;;;;;12.30;7.10;;;5.80;99.90;;;;;;5054405;28;20485;-69
2024/03/09 02:16:42;;;;;;;12.37;5.70;;;5.80;99.90;;;;;;5054285;28;20409;-69
2024/03/09 02:19:13;;;;;;;11.93;6.07;;;5.80;99.90;;;;;;5054180;28;20185;-69
2024/03/09 02:21:45;;;;;;;10.60;6.97;;;5.90;99.90;;;;;;5054325;28;20190;-69
2024/03/09 02:24:14;;;;;;;10.73;5.50;;;5.90;99.90;;;;;;5052511;28;20410;-69
2024/03/09 02:26:42;;;;;;;12.73;7.50;;;5.90;99.90;;;;;;5053970;28;20394;-69
2024/03/09 02:29:10;;;;;;;13.43;8.00;;;5.90;99.90;;;;;;5054028;28;20486;-69
2024/03/09 02:31:36;;;;;;;12.83;7.20;;;5.90;99.90;;;;;;5052683;28;20924;-69
2024/03/09 02:34:02;;;;;;;10.77;7.60;;;5.90;99.90;;;;;;5053704;28;20432;-69
2024/03/09 02:36:29;;;;;;;14.83;7.37;;;5.90;99.90;;;;;;5052747;28;20229;-70
2024/03/09 02:38:56;;;;;;;13.57;6.43;;;5.90;99.90;;;;;;5053557;28;20593;-69
2024/03/09 02:41:24;;;;;;;8.40;6.27;;;5.90;99.90;;;;;;5053825;28;20912;-69
2024/03/09 02:43:50;;;;;;;16.93;7.80;;;5.90;99.90;;;;;;5052290;28;20416;-69
2024/03/09 02:46:15;;;;;;;9.60;7.30;;;5.90;99.90;;;;;;5053775;28;20417;-69
2024/03/09 02:48:44;;;;;;;10.27;7.00;;;5.90;99.90;;;;;;5053409;28;20894;-69
2024/03/09 02:51:12;;;;;;;9.97;7.07;;;5.90;99.90;;;;;;5053424;28;20174;-69
2024/03/09 02:53:41;;;;;;;19.63;9.00;;;5.90;99.90;;;;;;5053157;28;20467;-69
2024/03/09 02:56:15;;;;;;;12.30;7.43;;;5.90;99.90;;;;;;5052322;28;20459;-69
2024/03/09 02:58:41;;;;;;;13.43;7.87;;;5.90;99.90;;;;;;5052126;28;20490;-69
2024/03/09 03:01:07;;;;;;;11.93;7.83;;;5.90;99.90;;;;;;5053237;28;20815;-70
2024/03/09 03:06:21;;;;;;;10.87;6.03;;;5.80;99.90;;;;;;5053024;28;20420;-69
2024/03/09 03:08:55;;;;;;;11.80;7.83;;;5.80;99.90;;;;;;5052967;28;20449;-69
2024/03/09 03:11:21;;;;;;;10.83;7.27;;;5.70;99.90;;;;;;5051741;28;20167;-69
2024/03/09 03:13:49;;;;;;;12.37;6.47;;;5.70;99.90;;;;;;5051744;28;20413;-69
2024/03/09 03:16:21;;;;;;;13.50;6.67;;;5.70;99.90;;;;;;5053173;28;20424;-69
2024/03/09 03:18:48;;;;;;;16.87;7.23;;;5.70;99.90;;;;;;5051789;28;20520;-69
2024/03/09 03:21:14;;;;;;;12.63;8.30;;;5.70;99.90;;;;;;5053239;28;20405;-69
2024/03/09 03:23:41;;;;;;;12.60;7.60;;;5.70;99.90;;;;;;5051572;28;20422;-70
2024/03/09 03:26:07;;;;;;;16.43;6.70;;;5.70;99.90;;;;;;5052962;28;20806;-69
2024/03/09 03:28:32;;;;;;;8.93;6.53;;;5.80;99.90;;;;;;5052765;28;20546;-70
2024/03/09 03:30:59;;;;;;;7.90;5.77;;;5.70;99.90;;;;;;5051768;28;20217;-69
2024/03/09 03:33:26;;;;;;;8.30;5.30;;;5.80;99.90;;;;;;5052514;28;20174;-69
2024/03/09 03:35:51;;;;;;;16.03;6.90;;;5.80;99.90;;;;;;5051048;28;20413;-69
2024/03/09 03:38:17;;;;;;;12.87;7.10;;;5.80;99.90;;;;;;5052667;28;20957;-69
2024/03/09 03:40:44;;;;;;;10.70;6.63;;;5.90;99.90;;;;;;5051298;28;20175;-69
2024/03/09 03:43:10;;;;;;;12.23;7.60;;;5.90;99.90;;;;;;5051160;28;20266;-70
2024/03/09 03:45:36;;;;;;;11.20;7.30;;;5.90;99.90;;;;;;5052619;28;20496;-69
2024/03/09 03:48:04;;;;;;;15.10;7.57;;;5.90;99.90;;;;;;5051108;28;20540;-69
2024/03/09 03:50:30;;;;;;;9.77;6.30;;;6.00;99.90;;;;;;5052604;28;20912;-69
2024/03/09 03:52:55;;;;;;;8.43;6.83;;;5.90;99.90;;;;;;5051214;28;20457;-69
2024/03/09 03:55:21;;;;;;;10.47;7.23;;;5.90;99.90;;;;;;5052190;28;20538;-69
2024/03/09 03:57:47;;;;;;;10.40;6.83;;;5.90;99.90;;;;;;5051031;28;20190;-69
2024/03/09 04:00:13;;;;;;;9.50;6.37;;;6.00;99.90;;;;;;5051318;28;20376;-69
2024/03/09 04:02:41;;;;;;;12.43;6.97;;;6.00;99.90;;;;;;5052574;28;20412;-69
2024/03/09 04:05:11;;;;;;;10.80;6.53;;;6.00;99.90;;;;;;5050905;28;20262;-70
2024/03/09 04:07:39;;;;;;;11.30;7.10;;;6.00;99.90;;;;;;5052091;28;20851;-69
2024/03/09 04:10:12;;;;;;;9.47;6.30;;;6.00;99.90;;;;;;5051278;28;20685;-69
2024/03/09 04:12:41;;;;;;;10.03;7.20;;;6.00;99.90;;;;;;5050949;28;20795;-69
2024/03/09 04:15:09;;;;;;;10.20;6.67;;;6.00;99.90;;;;;;5051819;28;20459;-69
2024/03/09 04:17:36;;;;;;;12.67;8.30;;;6.00;99.90;;;;;;5050700;28;20425;-69
2024/03/09 04:20:05;;;;;;;15.87;8.87;;;6.00;99.90;;;;;;5051955;28;20401;-69
2024/03/09 04:22:32;;;;;;;13.07;6.30;;;6.00;99.90;;;;;;5051851;28;20441;-69
2024/03/09 04:25:01;;;;;;;11.23;6.90;;;6.10;99.90;;;;;;5051791;28;20463;-70
2024/03/09 04:27:30;;;;;;;14.53;8.60;;;6.10;99.90;;;;;;5050484;28;20461;-69
2024/03/09 04:29:56;;;;;;;13.50;7.57;;;6.20;99.90;;;;;;5050607;28;20437;-69
2024/03/09 04:32:25;;;;;;;14.10;6.57;;;6.10;99.90;;;;;;5050500;28;20405;-69
2024/03/09 04:34:51;;;;;;;11.90;7.00;;;6.10;99.90;;;;;;5051546;28;20401;-69
2024/03/09 04:37:25;;;;;;;14.20;7.37;;;6.10;99.90;;;;;;5051669;28;20417;-69
2024/03/09 04:40:00;;;;;;;11.00;7.60;;;6.10;99.90;;;;;;5051766;28;20412;-70
2024/03/09 04:42:26;;;;;;;10.70;6.90;;;6.10;99.90;;;;;;5051785;28;20409;-69
2024/03/09 04:44:52;;;;;;;11.97;7.60;;;6.10;99.90;;;;;;5051496;28;20931;-69
2024/03/09 04:47:18;;;;;;;9.23;6.20;;;6.20;99.90;;;;;;5049979;28;20577;-70
2024/03/09 04:49:45;;;;;;;13.47;7.73;;;6.20;99.90;;;;;;5051721;28;20811;-70
2024/03/09 04:52:12;;;;;;;9.00;6.40;;;6.20;99.90;;;;;;5051696;28;20421;-69
2024/03/09 04:54:44;;;;;;;14.07;7.80;;;6.20;99.90;;;;;;5051429;28;20426;-69
2024/03/09 04:57:14;;;;;;;11.63;7.70;;;6.20;99.90;;;;;;5051633;28;20408;-70
2024/03/09 04:59:40;;;;;;;15.70;8.23;;;6.20;99.90;;;;;;5051525;28;20447;-69
2024/03/09 05:02:06;;;;;;;9.67;8.13;;;6.20;99.90;;;;;;5051417;28;20912;-69
2024/03/09 05:04:31;;;;;;;18.07;8.83;;;6.30;99.90;;;;;;5051337;28;20397;-69
2024/03/09 05:06:57;;;;;;;8.57;6.13;;;6.30;99.90;;;;;;5051369;28;20551;-69
2024/03/09 05:09:25;;;;;;;11.40;7.40;;;6.30;99.90;;;;;;5051558;28;20642;-69
2024/03/09 05:11:51;;;;;;;15.43;8.77;;;6.30;99.90;;;;;;5051510;28;20250;-70
2024/03/09 05:14:16;;;;;;;10.77;6.93;;;6.30;99.90;;;;;;5051000;28;20485;-70
2024/03/09 05:16:44;;;;;;;11.53;7.80;;;6.40;99.90;;;;;;5051172;28;20171;-69
2024/03/09 05:19:09;;;;;;;13.30;7.63;;;6.30;99.90;;;;;;5049997;28;20195;-70
2024/03/09 05:21:36;;;;;;;12.83;7.10;;;6.40;99.90;;;;;;5051365;28;20466;-70
2024/03/09 05:24:03;;;;;;;10.83;6.50;;;6.40;99.90;;;;;;5051009;28;20163;-70
2024/03/09 05:26:32;;;;;;;11.87;6.97;;;6.40;99.90;;;;;;5050174;28;20417;-70
2024/03/09 05:28:58;;;;;;;11.00;7.03;;;6.50;99.90;;;;;;5049787;28;20487;-69
2024/03/09 05:31:30;;;;;;;11.83;6.80;;;6.50;99.90;;;;;;5050279;28;20405;-69
2024/03/09 05:33:56;;;;;;;9.93;6.80;;;6.50;99.90;;;;;;5049859;28;20429;-70
2024/03/09 05:36:22;;;;;;;14.83;7.47;;;6.40;99.90;;;;;;5051286;28;20409;-70
2024/03/09 05:38:49;;;;;;;9.63;6.00;;;6.40;99.90;;;;;;5051017;28;20463;-69
2024/03/09 05:41:16;;;;;;;12.60;7.80;;;6.40;99.90;;;;;;5051122;28;20419;-69
2024/03/09 05:43:44;;;;;;;10.80;6.67;;;6.50;99.90;;;;;;5049630;28;20515;-70
2024/03/09 05:46:13;;;;;;;14.37;7.70;;;6.50;99.90;;;;;;5051115;28;20483;-70
2024/03/09 05:48:39;;;;;;;12.17;7.47;;;6.50;99.90;;;;;;5051020;28;20535;-69
2024/03/09 05:51:09;;;;;;;13.60;7.00;;;6.40;99.90;;;;;;5051108;28;20480;-69
2024/03/09 05:53:36;;;;;;;11.83;6.70;;;6.40;99.90;;;;;;5050844;28;20170;-69
2024/03/09 05:56:02;;;;;;;9.73;6.20;;;6.30;99.90;;;;;;5051032;28;20390;-70
2024/03/09 05:58:28;;;;;;;6.77;5.13;;;6.30;99.90;;;;;;5051948;28;20483;-69
2024/03/09 06:00:53;;;;;;;14.17;6.97;;;6.30;99.90;;;;;;5054339;28;20406;-69
2024/03/09 06:03:19;;;;;;;14.23;7.10;;;6.10;99.90;;;;;;5053989;28;20174;-69
2024/03/09 06:05:45;;;;;;;16.33;6.67;;;6.10;99.90;;;;;;5053247;28;20174;-69
2024/03/09 06:08:11;;;;;;;16.33;6.80;;;6.00;99.90;;;;;;5053004;28;20213;-70
2024/03/09 06:10:36;;;;;;;11.37;7.13;;;6.00;99.90;;;;;;5053096;28;20401;-69
2024/03/09 06:13:02;;;;;;;14.40;7.00;;;6.00;99.90;;;;;;5054568;28;20167;-69
2024/03/09 06:15:27;;;;;;;12.87;6.93;;;5.90;99.90;;;;;;5054173;28;20590;-70
2024/03/09 06:17:56;;;;;;;9.67;6.90;;;5.90;99.90;;;;;;5054259;28;20669;-69
2024/03/09 06:20:26;;;;;;;10.77;6.73;;;5.90;99.90;;;;;;5054264;28;20245;-69
2024/03/09 06:22:53;;;;;;;15.90;8.10;;;5.80;99.90;;;;;;5054112;28;20778;-70
2024/03/09 06:25:22;;;;;;;14.50;7.90;;;5.80;99.90;;;;;;5053777;28;20413;-69
2024/03/09 06:27:52;;;;;;;12.53;7.33;;;5.80;99.90;;;;;;5054359;28;20457;-69
2024/03/09 06:30:19;;;;;;;9.77;7.70;;;5.80;99.90;;;;;;5052840;28;20912;-69
2024/03/09 06:32:46;;;;;;;14.97;7.40;;;5.80;99.90;;;;;;5053885;28;20880;-69
2024/03/09 06:35:13;;;;;;;10.93;7.77;;;5.80;99.90;;;;;;5053547;28;20775;-69
2024/03/09 06:37:39;;;;;;;9.20;6.30;;;5.70;99.90;;;;;;5053712;28;20944;-70
2024/03/09 06:40:05;;;;;;;13.70;6.93;;;5.70;99.90;;;;;;5052309;28;20445;-70
2024/03/09 06:42:31;;;;;;;10.73;6.50;;;5.70;99.90;;;;;;5053734;28;20269;-69
2024/03/09 06:44:57;;;;;;;12.63;8.57;;;5.70;99.90;;;;;;5052286;28;20924;-69
2024/03/09 06:47:22;;;;;;;11.80;8.23;;;5.80;99.90;;;;;;5053624;28;20201;-69
2024/03/09 06:49:48;;;;;;;16.77;8.30;;;5.80;99.90;;;;;;5053596;28;20409;-69
2024/03/09 06:52:15;;;;;;;17.43;9.57;;;5.80;99.90;;;;;;5052219;28;20187;-69
2024/03/09 06:54:41;;;;;;;11.93;6.80;;;5.80;99.90;;;;;;5051933;28;20167;-70
2024/03/09 06:57:09;;;;;;;16.50;7.70;;;5.90;99.90;;;;;;5053422;28;20490;-70
2024/03/09 06:59:43;;;;;;;12.50;8.17;;;5.90;99.90;;;;;;5052110;28;20799;-69
2024/03/09 07:02:10;;;;;;;14.40;7.43;;;5.90;99.90;;;;;;5052111;28;20445;-69
2024/03/09 07:04:36;;;;;;;12.63;6.87;;;5.90;99.90;;;;;;5051795;28;20412;-69
2024/03/09 07:07:01;;;;;;;18.30;10.10;;;6.00;99.90;;;;;;5051898;28;20453;-69
2024/03/09 07:09:27;;;;;;;10.60;6.80;;;6.00;99.90;;;;;;5050772;28;20163;-70
2024/03/09 07:11:52;;;;;;;18.67;8.20;;;6.10;99.90;;;;;;5051968;28;20166;-69
2024/03/09 07:14:21;;;;;;;14.77;9.00;;;6.20;99.90;;;;;;5051616;28;20170;-70
2024/03/09 07:16:47;;;;;;;12.83;7.20;;;6.30;99.90;;;;;;5051739;28;20229;-69
2024/03/09 07:19:16;;;;;;;14.07;7.67;;;6.30;99.90;;;;;;5052814;28;20784;-70
2024/03/09 07:21:41;;;;;;;19.40;8.07;;;6.40;99.90;;;;;;5052999;28;20402;-69
2024/03/09 07:24:07;;;;;;;11.60;7.17;;;6.40;99.90;;;;;;5051441;28;20420;-69
2024/03/09 07:26:35;;;;;;;10.63;7.70;;;6.40;99.90;;;;;;5052963;28;20163;-69
2024/03/09 07:29:01;;;;;;;12.00;8.70;;;6.50;99.90;;;;;;5052710;28;20198;-69
2024/03/09 07:31:27;;;;;;;15.90;8.60;;;6.50;99.90;;;;;;5052847;28;20406;-70
2024/03/09 07:33:53;;;;;;;10.63;7.27;;;6.60;99.90;;;;;;5052109;28;20900;-69
2024/03/09 07:36:20;;;;;;;12.73;8.20;;;6.70;99.90;;;;;;5051234;28;20924;-69
2024/03/09 07:38:48;;;;;;;12.23;7.50;;;6.90;99.90;;;;;;5052448;28;20421;-70
2024/03/09 07:41:16;;;;;;;14.37;8.77;;;7.30;99.90;;;;;;5052503;28;20410;-70
2024/03/09 07:43:44;;;;;;;12.57;7.30;;;8.40;99.90;;;;;;5051113;28;20417;-70
2024/03/09 07:46:10;;;;;;;14.00;7.47;;;9.70;99.90;;;;;;5052560;28;20413;-70
2024/03/09 07:48:37;;;;;;;11.77;7.63;;;11.20;99.90;;;;;;5052254;28;20531;-70
2024/03/09 07:51:03;;;;;;;11.97;8.43;;;12.10;99.90;;;;;;5052663;28;20466;-70
2024/03/09 07:53:28;;;;;;;11.03;8.20;;;13.20;98.30;;;;;;5052083;28;20425;-70
2024/03/09 07:55:55;;;;;;;10.73;7.57;;;14.10;89.30;;;;;;5060215;28;20409;-66
2024/03/09 07:58:21;;;;;;;12.67;7.33;;;14.50;80.70;;;;;;5070870;28;20649;-66
2024/03/09 08:00:48;;;;;;;13.27;7.73;;;15.10;75.20;;;;;;5070366;28;20417;-65
2024/03/09 08:03:13;;;;;;;14.07;8.47;;;15.30;67.70;;;;;;5068960;28;20413;-66
2024/03/09 08:05:39;;;;;;;11.30;7.90;;;15.80;65.70;;;;;;5070527;28;20419;-66
2024/03/09 08:08:09;;;;;;;8.47;7.23;;;16.40;61.30;;;;;;5071613;28;20305;-66
2024/03/09 08:10:37;;;;;;;13.90;8.20;;;16.80;58.80;;;;;;5071480;28;20170;-66
2024/03/09 08:13:03;;;;;;;10.33;8.30;;;16.90;54.60;;;;;;5071901;28;20477;-66
2024/03/09 08:15:29;;;;;;;12.50;7.67;;;17.00;53.90;;;;;;5064489;28;20409;-66
2024/03/09 08:17:56;;;;;;;11.70;8.17;;;17.40;53.10;;;;;;5049442;28;20676;-66
2024/03/09 08:20:21;;;;;;;11.40;8.93;;;17.70;51.50;;;;;;5051794;28;20240;-66
2024/03/09 08:22:48;;;;;;;11.10;8.63;;;18.00;50.20;;;;;;5051439;28;20406;-66
2024/03/09 08:25:15;;;;;;;11.87;8.47;;;18.10;48.50;;;;;;5051539;28;20242;-66
2024/03/09 08:27:45;;;;;;;15.60;8.40;;;18.10;47.70;;;;;;5051739;28;21071;-65
2024/03/09 08:30:15;;;;;;;10.30;8.00;;;18.10;46.90;;;;;;5050522;28;20409;-66
2024/03/09 08:32:44;;;;;;;11.13;7.90;;;18.20;47.30;;;;;;5051771;28;20410;-66
2024/03/09 08:35:18;;;;;;;11.53;8.40;;;18.50;46.20;;;;;;5051179;28;20892;-66
2024/03/09 08:37:45;;;;;;;11.80;9.20;;;18.70;45.30;;;;;;5051674;28;20433;-66
2024/03/09 08:40:16;;;;;;;11.40;8.10;;;19.00;45.00;;;;;;5051770;28;20408;-66
2024/03/09 08:42:43;;;;;;;12.70;7.30;;;19.30;44.00;;;;;;5050275;28;20460;-66
2024/03/09 08:45:09;;;;;;;14.50;9.37;;;19.80;43.20;;;;;;5033724;28;20421;-66
2024/03/09 08:47:37;;;;;;;11.50;8.93;;;20.10;42.60;;;;;;5050792;28;20469;-66
2024/03/09 08:50:04;;;;;;;10.23;8.20;;;20.60;42.70;;;;;;5051594;28;20167;-66
2024/03/09 08:52:32;;;;;;;9.90;8.80;;;21.20;40.80;;;;;;5051587;28;20424;-66
2024/03/09 08:54:58;;;;;;;10.57;7.97;;;21.70;39.90;;;;;;5049840;28;20444;-66
2024/03/09 08:57:23;;;;;;;10.80;8.90;;;21.70;39.00;;;;;;5050212;28;20461;-66
2024/03/09 08:59:53;;;;;;;11.43;8.10;;;21.70;37.80;;;;;;5048492;28;20433;-66
2024/03/09 09:02:22;;;;;;;12.50;9.90;;;22.10;38.30;;;;;;5051361;28;20185;-65
2024/03/09 09:04:48;;;;;;;11.97;8.70;;;22.40;37.40;;;;;;5049877;28;20402;-66
2024/03/09 09:07:15;;;;;;;14.30;10.10;;;22.40;36.80;;;;;;5051065;28;20817;-66
2024/03/09 09:09:41;;;;;;;10.50;7.97;;;22.50;35.60;;;;;;5051304;28;20402;-66
2024/03/09 09:12:08;;;;;;;11.87;8.67;;;22.80;35.40;;;;;;5051457;28;20455;-66
2024/03/09 09:14:34;;;;;;;10.50;8.93;;;23.30;35.70;;;;;;5051272;28;20901;-66
2024/03/09 09:17:00;;;;;;;11.83;8.07;;;23.80;35.40;;;;;;5051363;28;20401;-66
2024/03/09 09:19:26;;;;;;;14.20;10.03;;;24.30;35.50;;;;;;5051389;28;20257;-66
2024/03/09 09:21:51;;;;;;;11.13;8.57;;;25.60;35.20;;;;;;5051424;28;20186;-66
2024/03/09 09:24:17;;;;;;;11.93;9.47;;;26.10;32.50;;;;;;5051021;28;20393;-66
2024/03/09 09:26:43;;;;;;;11.50;8.97;;;25.60;30.90;;;;;;5051419;28;20649;-66
2024/03/09 09:29:10;;;;;;;13.27;10.03;;;24.80;30.80;;;;;;5049893;28;20203;-66
2024/03/09 09:31:36;;;;;;;12.33;9.47;;;24.90;32.00;;;;;;5049959;28;20421;-66
2024/03/09 09:34:02;;;;;;;11.33;8.90;;;25.00;31.70;;;;;;5053111;28;20416;-66
2024/03/09 09:36:29;;;;;;;11.43;9.07;;;24.90;30.80;;;;;;5055178;28;20409;-66
2024/03/09 09:38:59;;;;;;;12.70;9.37;;;25.00;30.70;;;;;;5060483;28;20186;-66
2024/03/09 09:41:27;;;;;;;16.30;10.00;;;24.80;31.10;;;;;;5073149;28;20416;-66
2024/03/09 09:43:55;;;;;;;10.07;8.53;;;24.90;31.20;;;;;;5073972;28;20458;-67
2024/03/09 09:46:21;;;;;;;12.67;9.37;;;25.10;31.10;;;;;;5074636;28;20683;-66
2024/03/09 09:48:52;;;;;;;13.13;10.03;;;25.80;31.00;;;;;;5074633;28;20456;-66
2024/03/09 09:51:28;;;;;;;10.57;8.73;;;26.20;30.00;;;;;;5073384;28;20170;-66
2024/03/09 09:53:54;;;;;;;11.73;9.93;;;26.60;29.70;;;;;;5074459;28;20407;-66
2024/03/09 09:56:23;;;;;;;12.63;9.80;;;26.80;28.90;;;;;;5074775;28;20393;-65
2024/03/09 09:58:50;;;;;;;15.23;9.83;;;26.70;28.70;;;;;;5074728;28;20224;-66
2024/03/09 10:01:20;;;;;;;9.63;8.63;;;26.30;29.00;;;;;;5074642;28;20483;-67
2024/03/09 10:03:47;;;;;;;11.50;9.47;;;26.60;29.40;;;;;;5074298;28;20173;-66
2024/03/09 10:06:22;;;;;;;10.43;9.27;;;26.80;28.70;;;;;;5074599;28;20404;-66
2024/03/09 10:08:49;;;;;;;11.33;8.97;;;26.50;29.10;;;;;;5074472;28;20509;-66
2024/03/09 10:11:16;;;;;;;11.80;9.17;;;26.90;29.80;;;;;;5074534;28;20401;-66
2024/03/09 10:13:43;;;;;;;8.83;7.90;;;27.80;29.90;;;;;;5074490;28;20977;-67
2024/03/09 10:16:12;;;;;;;10.17;8.70;;;28.60;29.20;;;;;;5074345;28;20436;-66
2024/03/09 10:18:42;;;;;;;10.07;9.03;;;29.40;28.70;;;;;;5074336;28;20428;-67
2024/03/09 10:21:10;;;;;;;11.60;9.30;;;30.10;28.00;;;;;;5074281;28;20415;-66
2024/03/09 10:23:36;;;;;;;9.17;8.27;;;30.10;27.00;;;;;;5072730;28;20943;-67
2024/03/09 10:26:06;;;;;;;10.67;9.60;;;30.60;26.90;;;;;;5072960;28;20463;-67
2024/03/09 10:28:35;;;;;;;13.60;9.30;;;30.80;26.20;;;;;;5074016;28;20460;-66
2024/03/09 10:31:07;;;;;;;11.60;9.57;;;30.80;25.90;;;;;;5074074;28;20401;-67
2024/03/09 10:33:36;;;;;;;10.20;9.03;;;30.30;25.80;;;;;;5073807;28;20500;-67
2024/03/09 10:36:03;;;;;;;10.27;9.37;;;30.50;26.40;;;;;;5074031;28;20401;-66
2024/03/09 10:38:30;;;;;;;12.30;10.73;;;30.80;26.20;;;;;;5072615;28;20512;-67
2024/03/09 10:41:01;;;;;;;9.90;8.90;;;31.40;25.50;;;;;;5073636;28;20439;-67
2024/03/09 10:43:28;;;;;;;11.43;10.23;;;32.00;25.40;;;;;;5073316;28;20488;-68
2024/03/09 10:45:56;;;;;;;13.07;10.23;;;32.50;25.00;;;;;;5073920;28;20409;-67
2024/03/09 10:48:26;;;;;;;12.40;9.53;;;32.60;24.60;;;;;;5073640;28;20538;-67
2024/03/09 10:50:59;;;;;;;11.00;9.63;;;32.80;23.70;;;;;;5073683;28;20465;-68
2024/03/09 10:53:46;;;;;;;11.87;9.77;;;32.40;23.50;;;;;;5073437;28;20899;-67
2024/03/09 10:56:19;;;;;;;11.67;10.40;;;31.10;24.20;;;;;;5073689;28;20412;-67
2024/03/09 10:58:45;;;;;;;10.87;9.50;;;30.20;24.20;;;;;;5073597;28;20467;-67
2024/03/09 11:01:15;;;;;;;11.27;9.17;;;28.40;25.40;;;;;;5073844;28;20396;-67
2024/03/09 11:03:49;;;;;;;10.83;8.70;;;28.70;26.20;;;;;;5073304;28;20408;-68
2024/03/09 11:06:17;;;;;;;13.00;9.40;;;29.10;25.90;;;;;;5073459;28;20400;-67
2024/03/09 11:08:56;;;;;;;10.07;8.13;;;29.20;25.60;;;;;;5073270;28;20612;-67
2024/03/09 11:11:25;;;;;;;10.47;9.00;;;29.40;25.40;;;;;;5073386;28;20413;-67
2024/03/09 11:13:51;;;;;;;10.60;9.50;;;29.30;25.30;;;;;;5073079;28;20423;-67
2024/03/09 11:16:20;;;;;;;12.20;9.30;;;29.40;25.90;;;;;;5073232;28;20401;-68
2024/03/09 11:18:50;;;;;;;13.63;9.50;;;29.70;25.40;;;;;;5073150;28;20428;-67
2024/03/09 11:21:29;;;;;;;10.50;9.10;;;29.80;25.40;;;;;;5073488;28;20393;-67
2024/03/09 11:23:59;;;;;;;12.03;9.90;;;29.90;25.00;;;;;;5072930;28;20475;-67
2024/03/09 11:26:25;;;;;;;9.80;8.30;;;29.70;24.80;;;;;;5073093;28;20411;-67
2024/03/09 11:28:57;;;;;;;13.10;9.37;;;29.90;24.90;;;;;;5072897;28;20498;-67
2024/03/09 11:31:30;;;;;;;13.10;8.57;;;29.40;25.00;;;;;;5073411;28;20412;-67
2024/03/09 11:34:10;;;;;;;10.53;8.70;;;29.40;25.30;;;;;;5071372;28;20409;-67
2024/03/09 11:36:52;;;;;;;10.97;8.40;;;29.60;25.30;;;;;;5072933;28;20403;-67
2024/03/09 11:39:22;;;;;;;12.27;10.00;;;30.00;25.10;;;;;;5072955;28;20456;-67
2024/03/09 11:41:50;;;;;;;15.70;9.70;;;30.80;25.20;;;;;;5072749;28;20813;-67
2024/03/09 11:44:23;;;;;;;10.57;9.33;;;31.30;25.30;;;;;;5072431;28;20409;-68
2024/03/09 11:46:50;;;;;;;11.13;9.43;;;31.50;24.40;;;;;;5072712;28;20436;-68
2024/03/09 11:49:16;;;;;;;11.07;9.33;;;31.70;23.90;;;;;;5071288;28;20440;-67
2024/03/09 11:51:42;;;;;;;11.43;9.40;;;32.40;24.20;;;;;;5072493;28;20432;-67
2024/03/09 11:54:13;;;;;;;9.90;8.77;;;33.30;23.70;;;;;;5072220;28;20766;-67
2024/03/09 11:56:40;;;;;;;10.13;8.60;;;34.10;23.20;;;;;;5071915;28;20372;-67
2024/03/09 11:59:07;;;;;;;10.53;9.17;;;34.70;23.00;;;;;;5072325;28;20793;-67
2024/03/09 12:01:36;;;;;;;11.83;8.97;;;34.30;22.40;;;;;;5072173;28;20397;-67
2024/03/09 12:04:03;;;;;;;11.37;9.63;;;33.90;21.80;;;;;;5072088;28;20407;-67
2024/03/09 12:06:30;;;;;;;9.23;8.30;;;34.00;22.30;;;;;;5072310;28;20922;-67
2024/03/09 12:08:56;;;;;;;10.50;9.27;;;34.10;22.30;;;;;;5072206;28;20966;-67
2024/03/09 12:11:23;;;;;;;9.93;8.07;;;34.80;22.60;;;;;;5072052;28;20918;-67
2024/03/09 12:13:52;;;;;;;11.57;8.83;;;35.10;22.00;;;;;;5071469;28;20427;-67
2024/03/09 12:16:18;;;;;;;11.30;9.77;;;35.00;21.60;;;;;;5072154;28;20472;-67
2024/03/09 12:18:45;;;;;;;8.97;8.10;;;35.00;21.90;;;;;;5072032;28;20461;-67
2024/03/09 12:21:15;;;;;;;9.43;7.80;;;34.70;21.60;;;;;;5072095;28;20405;-67
2024/03/09 12:23:41;;;;;;;12.20;9.20;;;35.10;21.60;;;;;;5072255;28;20881;-68
2024/03/09 12:26:09;;;;;;;9.63;8.10;;;35.00;21.20;;;;;;5072018;28;20439;-67
2024/03/09 12:28:34;;;;;;;10.03;8.30;;;35.00;21.10;;;;;;5071818;28;20458;-67
2024/03/09 12:31:00;;;;;;;8.83;7.93;;;35.10;21.60;;;;;;5071988;28;20392;-68
2024/03/09 12:33:27;;;;;;;11.30;8.80;;;35.10;21.30;;;;;;5071688;28;20159;-66
2024/03/09 12:35:59;;;;;;;10.63;9.47;;;34.60;21.70;;;;;;5071914;28;20158;-67
2024/03/09 12:38:25;;;;;;;10.63;9.07;;;33.40;21.40;;;;;;5072041;28;20506;-67
2024/03/09 12:40:53;;;;;;;8.87;7.93;;;32.90;21.80;;;;;;5071869;28;20400;-67
2024/03/09 12:43:19;;;;;;;9.10;7.90;;;32.80;22.30;;;;;;5071766;28;20405;-67
2024/03/09 12:45:55;;;;;;;9.77;8.77;;;33.20;22.70;;;;;;5071814;28;20411;-67
2024/03/09 12:48:24;;;;;;;7.97;7.17;;;33.40;22.10;;;;;;5071616;28;20217;-67